Time;durP1;ratioP1;P1;durP2;ratioP2;P2;SDS_P1;SDS_P2;PMS_P1;PMS_P2;Temp;Humidity;BMP_temperature;BMP_pressure;BME280_temperature;BME280_humidity;BME280_pressure;Samples;Min_cycle;Max_cycle;Signal;HPM_P1;HPM_P2
2022/12/17 13:06:47;;;;;;;25.33;13.70;;;3.20;45.90;;;;;;4895798;29;20476;-84
2022/12/17 13:09:37;;;;;;;22.10;13.47;;;3.30;45.50;;;;;;4926516;28;20452;-85
2022/12/17 13:12:23;;;;;;;17.17;11.20;;;3.40;45.40;;;;;;4905102;29;20458;-84
2022/12/17 13:14:54;;;;;;;36.23;13.37;;;3.30;45.40;;;;;;4912928;29;20775;-84
2022/12/17 13:17:34;;;;;;;21.40;12.43;;;3.30;45.50;;;;;;4914791;29;20448;-84
2022/12/17 13:20:18;;;;;;;19.27;13.70;;;3.30;45.50;;;;;;4913226;29;20544;-86
2022/12/17 13:22:50;;;;;;;23.47;13.83;;;3.20;45.40;;;;;;4909111;29;20962;-85
2022/12/17 13:25:21;;;;;;;22.60;13.37;;;3.20;45.60;;;;;;4907598;29;20457;-83
2022/12/17 13:27:49;;;;;;;25.27;12.70;;;3.10;45.80;;;;;;4877469;29;20470;-84
2022/12/17 13:30:23;;;;;;;19.37;11.37;;;3.10;46.50;;;;;;4906526;29;20956;-85
2022/12/17 13:33:00;;;;;;;28.23;12.50;;;3.10;46.00;;;;;;4906884;29;20463;-83
2022/12/17 13:35:38;;;;;;;27.60;15.43;;;3.00;46.10;;;;;;4885652;29;21135;-84
2022/12/17 13:38:15;;;;;;;32.33;15.47;;;3.00;46.30;;;;;;4908656;29;20456;-84
2022/12/17 13:40:46;;;;;;;25.20;15.27;;;3.10;46.40;;;;;;4899746;29;20838;-84
2022/12/17 13:43:17;;;;;;;26.47;15.23;;;3.00;46.30;;;;;;4884831;29;20475;-84
2022/12/17 13:45:44;;;;;;;33.77;14.33;;;3.00;46.50;;;;;;4931398;29;20477;-86
2022/12/17 13:48:21;;;;;;;20.90;11.70;;;3.00;46.40;;;;;;4900993;29;20482;-85
2022/12/17 13:50:53;;;;;;;23.80;14.87;;;2.90;46.40;;;;;;4902633;29;20462;-85
2022/12/17 13:53:21;;;;;;;27.50;15.17;;;2.90;46.50;;;;;;4895535;29;20988;-86
2022/12/17 13:55:52;;;;;;;24.30;15.83;;;2.90;46.60;;;;;;4900850;29;21086;-85
2022/12/17 13:58:24;;;;;;;30.57;17.80;;;2.80;46.60;;;;;;4905226;29;20450;-86
2022/12/17 14:00:51;;;;;;;38.10;17.90;;;2.80;46.70;;;;;;4932400;29;20953;-85
2022/12/17 14:03:22;;;;;;;33.60;19.47;;;2.70;46.80;;;;;;4902867;29;20615;-84
2022/12/17 14:05:49;;;;;;;50.03;20.17;;;2.70;47.00;;;;;;4931157;28;20448;-85
2022/12/17 14:08:18;;;;;;;41.50;20.80;;;2.60;47.10;;;;;;4894894;29;20542;-85
2022/12/17 14:10:50;;;;;;;42.47;20.20;;;2.60;47.30;;;;;;4913932;29;20566;-85
2022/12/17 14:13:17;;;;;;;38.40;19.27;;;2.50;47.40;;;;;;4933978;28;21101;-86
2022/12/17 14:15:47;;;;;;;30.13;15.20;;;2.40;47.50;;;;;;4916419;29;20471;-85
2022/12/17 14:18:16;;;;;;;26.40;14.67;;;2.30;47.60;;;;;;4918406;29;20467;-85
2022/12/17 14:20:45;;;;;;;26.17;11.27;;;2.20;47.80;;;;;;4920899;29;20935;-85
2022/12/17 14:23:17;;;;;;;21.87;9.90;;;2.10;47.80;;;;;;4889651;29;20902;-85
2022/12/17 14:25:44;;;;;;;23.80;10.63;;;1.90;48.00;;;;;;4922757;29;20515;-83
2022/12/17 14:28:22;;;;;;;24.10;12.20;;;1.80;48.10;;;;;;4898331;29;20479;-85
2022/12/17 14:30:53;;;;;;;21.97;12.47;;;1.70;48.30;;;;;;4900525;29;20452;-86
2022/12/17 14:33:28;;;;;;;20.83;11.63;;;1.60;48.50;;;;;;4891587;29;20471;-85
2022/12/17 14:35:59;;;;;;;24.30;10.70;;;1.50;48.70;;;;;;4897864;29;21007;-86
2022/12/17 14:38:27;;;;;;;22.13;9.93;;;1.50;48.90;;;;;;4905138;29;20542;-85
2022/12/17 14:40:54;;;;;;;20.87;11.67;;;1.50;49.00;;;;;;4877700;29;20463;-86
2022/12/17 14:43:27;;;;;;;17.23;10.67;;;1.40;49.00;;;;;;4916650;29;20476;-85
2022/12/17 14:49:02;;;;;;;22.37;10.00;;;1.10;49.60;;;;;;4861173;29;20479;-85
2022/12/17 14:51:34;;;;;;;28.50;9.07;;;1.00;49.80;;;;;;4854131;29;20501;-85
2022/12/17 14:54:29;;;;;;;21.10;10.00;;;1.00;49.80;;;;;;4904833;29;20543;-85
2022/12/17 14:56:58;;;;;;;17.87;10.03;;;0.90;49.80;;;;;;4888434;29;20455;-83
2022/12/17 14:59:30;;;;;;;23.77;12.43;;;0.90;50.20;;;;;;4882995;29;20549;-86
2022/12/17 15:01:57;;;;;;;19.53;10.57;;;0.80;50.90;;;;;;4911234;29;20482;-84
2022/12/17 15:04:25;;;;;;;22.83;10.57;;;0.70;51.10;;;;;;4905425;29;20472;-83
2022/12/17 15:06:55;;;;;;;16.30;8.83;;;0.70;51.30;;;;;;4932736;28;20587;-84
2022/12/17 15:09:22;;;;;;;16.97;8.67;;;0.70;50.90;;;;;;4917641;29;20467;-85
2022/12/17 15:11:49;;;;;;;23.37;11.90;;;0.70;50.70;;;;;;4871570;29;20448;-83
2022/12/17 15:14:16;;;;;;;36.10;12.10;;;0.70;50.70;;;;;;4893600;29;20504;-85
2022/12/17 15:16:43;;;;;;;32.53;12.17;;;0.70;50.80;;;;;;4934022;28;20461;-85
2022/12/17 15:19:10;;;;;;;23.10;12.87;;;0.80;50.80;;;;;;4876217;29;20503;-84
2022/12/17 15:21:37;;;;;;;21.63;10.93;;;0.90;50.50;;;;;;4931352;28;20449;-84
2022/12/17 15:24:10;;;;;;;27.00;13.77;;;0.90;50.20;;;;;;4925106;29;20466;-84
2022/12/17 15:26:37;;;;;;;23.90;12.43;;;0.90;50.00;;;;;;4903772;29;20454;-86
2022/12/17 15:29:04;;;;;;;19.13;10.80;;;1.00;49.90;;;;;;4917765;29;20460;-84
2022/12/17 15:31:31;;;;;;;21.60;13.40;;;1.00;49.70;;;;;;4886207;29;20462;-83
2022/12/17 15:33:58;;;;;;;22.67;12.90;;;1.00;49.40;;;;;;4893826;29;20857;-81
2022/12/17 15:36:25;;;;;;;26.33;13.17;;;1.00;49.20;;;;;;4902804;29;20451;-83
2022/12/17 15:38:52;;;;;;;19.70;10.80;;;0.90;49.10;;;;;;4900238;29;20455;-84
2022/12/17 15:44:05;;;;;;;17.50;13.00;;;0.80;49.20;;;;;;4903021;29;20990;-84
2022/12/17 15:46:32;;;;;;;22.70;11.93;;;0.80;49.20;;;;;;4886866;29;20461;-83
2022/12/17 15:48:59;;;;;;;24.20;11.70;;;0.70;49.10;;;;;;4900525;29;20494;-84
2022/12/17 15:51:27;;;;;;;21.90;12.03;;;0.60;49.00;;;;;;4899826;29;20477;-84
2022/12/17 15:53:54;;;;;;;23.23;13.77;;;0.60;49.00;;;;;;4900452;29;20479;-84
2022/12/17 15:56:24;;;;;;;26.23;13.90;;;0.60;49.00;;;;;;4892988;29;20458;-84
2022/12/17 15:58:51;;;;;;;21.80;11.57;;;0.60;49.10;;;;;;4887139;29;20458;-84
2022/12/17 16:01:19;;;;;;;25.70;12.10;;;0.60;49.10;;;;;;4907050;29;20857;-84
2022/12/17 16:03:46;;;;;;;23.80;13.20;;;0.50;48.80;;;;;;4892255;29;20869;-84
2022/12/17 16:06:13;;;;;;;23.63;13.40;;;0.50;48.80;;;;;;4887222;29;20456;-82
2022/12/17 16:08:40;;;;;;;26.20;13.50;;;0.40;48.90;;;;;;4899480;29;20897;-85
2022/12/17 16:11:08;;;;;;;18.67;11.60;;;0.30;49.10;;;;;;4902464;29;20954;-84
2022/12/17 16:13:36;;;;;;;22.20;12.57;;;0.30;49.40;;;;;;4868763;29;21197;-80
2022/12/17 16:16:04;;;;;;;26.43;15.10;;;0.30;49.60;;;;;;4929473;28;20451;-81
2022/12/17 16:18:31;;;;;;;41.93;15.30;;;0.30;49.30;;;;;;4905330;29;20463;-83
2022/12/17 16:21:02;;;;;;;23.67;14.80;;;0.20;49.30;;;;;;4913092;29;20501;-83
2022/12/17 16:23:29;;;;;;;27.73;15.80;;;0.10;49.40;;;;;;4905297;29;21012;-84
2022/12/17 16:25:57;;;;;;;26.93;13.63;;;0.10;49.60;;;;;;4900521;29;20455;-82
2022/12/17 16:28:24;;;;;;;34.50;15.83;;;0.10;49.60;;;;;;4904967;29;20481;-85
2022/12/17 16:31:01;;;;;;;25.30;15.30;;;0.00;49.90;;;;;;4899500;29;20810;-84
2022/12/17 16:33:32;;;;;;;34.77;16.93;;;-0.10;50.00;;;;;;4929317;28;20486;-84
2022/12/17 16:35:59;;;;;;;46.97;19.63;;;-0.20;50.40;;;;;;4892084;29;20973;-85
2022/12/17 16:38:26;;;;;;;36.63;18.30;;;-0.40;51.20;;;;;;4864726;29;20460;-83
2022/12/17 16:40:56;;;;;;;38.93;20.20;;;-0.50;51.80;;;;;;4907276;29;21015;-85
2022/12/17 16:43:23;;;;;;;23.93;11.93;;;-0.70;52.40;;;;;;4928748;29;20474;-83
2022/12/17 16:45:51;;;;;;;27.50;15.97;;;-1.00;52.50;;;;;;4915596;29;20466;-84
2022/12/17 16:48:21;;;;;;;35.37;18.20;;;-1.70;54.10;;;;;;4927500;29;20564;-84
2022/12/17 16:50:49;;;;;;;41.03;22.23;;;-2.10;55.50;;;;;;4906705;29;20822;-84
2022/12/17 16:53:17;;;;;;;36.67;17.97;;;-2.00;55.90;;;;;;4902643;29;20475;-84
2022/12/17 16:55:45;;;;;;;32.33;19.07;;;-1.60;55.10;;;;;;4933296;29;20455;-85
2022/12/17 16:58:13;;;;;;;33.87;13.37;;;-1.20;54.20;;;;;;4926284;29;21103;-85
2022/12/17 17:00:40;;;;;;;39.97;18.10;;;-1.00;52.80;;;;;;4929366;28;20450;-84
2022/12/17 17:03:08;;;;;;;23.80;14.13;;;-1.60;53.60;;;;;;4903188;29;20845;-85
2022/12/17 17:05:39;;;;;;;36.50;18.20;;;-1.90;54.70;;;;;;4902870;29;20460;-84
2022/12/17 17:08:06;;;;;;;27.90;15.83;;;-1.80;55.20;;;;;;4918576;29;20567;-84
2022/12/17 17:10:35;;;;;;;27.60;16.10;;;-1.40;54.20;;;;;;4898711;29;20455;-85
2022/12/17 17:13:02;;;;;;;33.60;15.87;;;-1.00;53.00;;;;;;4918121;29;20460;-85
2022/12/17 17:15:29;;;;;;;36.33;18.80;;;-0.80;51.90;;;;;;4886523;29;20467;-84
2022/12/17 17:17:56;;;;;;;38.97;19.17;;;-0.60;51.20;;;;;;4894535;29;20960;-84
2022/12/17 17:20:23;;;;;;;37.80;20.43;;;-0.50;50.60;;;;;;4910457;29;20479;-86
2022/12/17 17:22:52;;;;;;;40.87;18.27;;;-0.40;50.20;;;;;;4906847;29;20459;-85
2022/12/17 17:25:22;;;;;;;31.73;18.50;;;-0.50;50.00;;;;;;4892009;29;20465;-84
2022/12/17 17:27:49;;;;;;;33.53;17.37;;;-0.60;50.10;;;;;;4873033;29;20462;-85
2022/12/17 17:30:16;;;;;;;30.60;17.13;;;-0.60;50.30;;;;;;4888055;29;20450;-85
2022/12/17 17:32:43;;;;;;;24.07;15.47;;;-0.60;50.10;;;;;;4907929;29;20463;-84
2022/12/17 17:35:10;;;;;;;34.00;17.73;;;-0.50;50.10;;;;;;4918628;29;20470;-85
2022/12/17 17:37:37;;;;;;;29.10;18.43;;;-0.50;49.90;;;;;;4890720;29;20447;-85
2022/12/17 17:40:07;;;;;;;29.17;15.50;;;-0.50;49.90;;;;;;4903898;29;20464;-85
2022/12/17 17:42:34;;;;;;;34.10;16.50;;;-0.60;50.40;;;;;;4916869;29;20464;-85
2022/12/17 17:45:02;;;;;;;30.23;17.73;;;-0.60;50.20;;;;;;4901751;29;20853;-84
2022/12/17 17:47:30;;;;;;;29.00;17.27;;;-0.60;50.10;;;;;;4930996;29;20546;-82
2022/12/17 17:49:57;;;;;;;30.43;14.93;;;-0.60;50.00;;;;;;4916008;29;21017;-84
2022/12/17 17:52:24;;;;;;;35.27;12.83;;;-0.70;50.00;;;;;;4887087;29;20515;-84
2022/12/17 17:54:53;;;;;;;43.30;15.20;;;-0.80;50.00;;;;;;4909459;29;20511;-84
2022/12/17 17:57:21;;;;;;;22.03;13.10;;;-0.90;50.60;;;;;;4919381;29;21025;-84
2022/12/17 17:59:48;;;;;;;32.17;15.07;;;-1.00;50.80;;;;;;4900112;29;20799;-84
2022/12/17 18:02:15;;;;;;;26.40;12.27;;;-1.00;50.80;;;;;;4891713;29;20978;-84
2022/12/17 18:04:42;;;;;;;26.20;12.60;;;-0.90;50.60;;;;;;4885257;29;20510;-85
2022/12/17 18:07:09;;;;;;;23.90;14.73;;;-0.80;50.40;;;;;;4918755;29;20460;-83
2022/12/17 18:09:36;;;;;;;31.60;16.10;;;-0.70;49.70;;;;;;4914720;29;20470;-83
2022/12/17 18:13:53;;;;;;;22.47;13.07;;;-0.70;49.20;;;;;;4913881;29;20447;-83
2022/12/17 18:14:51;;;;;;;21.57;14.67;;;-0.70;48.80;;;;;;4898850;29;21283;-85
2022/12/17 18:17:18;;;;;;;23.87;13.90;;;-0.80;49.20;;;;;;4881644;29;20451;-83
2022/12/17 18:19:47;;;;;;;25.50;11.67;;;-0.70;48.90;;;;;;4890911;29;20538;-85
2022/12/17 18:22:14;;;;;;;31.63;17.30;;;-0.70;48.20;;;;;;4931060;29;20444;-84
2022/12/17 18:24:41;;;;;;;23.90;11.70;;;-0.80;47.90;;;;;;4902634;29;20482;-85
2022/12/17 18:27:08;;;;;;;23.60;12.73;;;-0.80;48.10;;;;;;4899761;29;20514;-85
2022/12/17 18:29:35;;;;;;;22.10;12.60;;;-0.80;48.10;;;;;;4922754;29;20487;-84
2022/12/17 18:32:03;;;;;;;20.97;13.40;;;-0.80;48.00;;;;;;4889960;29;20517;-85
2022/12/17 18:34:32;;;;;;;24.90;14.67;;;-0.80;48.20;;;;;;4915895;29;20472;-84
2022/12/17 18:36:59;;;;;;;27.03;14.87;;;-0.70;48.20;;;;;;4900335;29;20440;-83
2022/12/17 18:39:26;;;;;;;22.70;11.53;;;-0.70;47.70;;;;;;4887570;29;20496;-84
2022/12/17 18:44:40;;;;;;;26.77;17.60;;;-0.80;47.20;;;;;;4900030;29;20511;-85
2022/12/17 18:47:09;;;;;;;32.60;17.37;;;-0.90;47.50;;;;;;4915285;29;20451;-84
2022/12/17 18:49:37;;;;;;;27.90;16.10;;;-1.00;47.80;;;;;;4914564;29;20484;-85
2022/12/17 18:52:05;;;;;;;29.20;17.37;;;-1.00;47.60;;;;;;4905971;29;20469;-83
2022/12/17 18:54:33;;;;;;;39.40;17.77;;;-1.00;47.40;;;;;;4916838;29;21244;-85
2022/12/17 18:57:00;;;;;;;30.43;16.20;;;-1.00;47.20;;;;;;4910121;29;20447;-85
2022/12/17 18:59:29;;;;;;;39.43;19.90;;;-1.00;47.10;;;;;;4902450;29;20466;-83
2022/12/17 19:01:57;;;;;;;29.67;15.27;;;-1.00;47.20;;;;;;4923264;29;20460;-84
2022/12/17 19:04:26;;;;;;;29.67;16.83;;;-1.00;47.20;;;;;;4915758;29;21106;-84
2022/12/17 19:06:54;;;;;;;24.40;13.07;;;-1.00;46.90;;;;;;4912843;29;20526;-85
2022/12/17 19:09:24;;;;;;;20.40;12.03;;;-1.00;46.50;;;;;;4899574;28;20570;-83
2022/12/17 19:11:52;;;;;;;26.23;13.50;;;-1.20;46.70;;;;;;4898645;29;20477;-84
2022/12/17 19:14:21;;;;;;;31.17;16.47;;;-1.20;46.90;;;;;;4917733;29;20463;-83
2022/12/17 19:16:48;;;;;;;25.47;14.80;;;-1.20;47.10;;;;;;4903571;29;21441;-83
2022/12/17 19:19:15;;;;;;;25.70;14.53;;;-1.10;47.20;;;;;;4896912;29;20482;-84
2022/12/17 19:21:44;;;;;;;20.13;12.40;;;-1.10;47.10;;;;;;4899518;29;20456;-85
2022/12/17 19:24:13;;;;;;;20.27;12.43;;;-1.10;46.80;;;;;;4916239;29;20465;-86
2022/12/17 19:26:40;;;;;;;27.33;15.13;;;-1.10;46.50;;;;;;4895578;29;20885;-85
2022/12/17 19:29:10;;;;;;;27.63;15.17;;;-1.10;46.60;;;;;;4898045;29;20484;-85
2022/12/17 19:31:38;;;;;;;30.50;15.40;;;-1.10;47.00;;;;;;4911819;29;20451;-83
2022/12/17 19:34:07;;;;;;;28.90;14.00;;;-1.20;46.70;;;;;;4885356;29;20490;-84
2022/12/17 19:36:35;;;;;;;28.17;13.40;;;-1.10;46.50;;;;;;4913023;29;20448;-84
2022/12/17 19:39:06;;;;;;;24.97;15.57;;;-1.10;46.60;;;;;;4881824;29;20450;-85
2022/12/17 19:41:34;;;;;;;28.03;16.23;;;-1.10;46.70;;;;;;4894765;29;21048;-85
2022/12/17 19:44:03;;;;;;;33.00;15.73;;;-1.10;46.30;;;;;;4866716;29;21033;-86
2022/12/17 19:46:31;;;;;;;32.13;15.57;;;-1.40;45.90;;;;;;4895183;29;20477;-84
2022/12/17 19:48:58;;;;;;;30.20;18.10;;;-1.40;46.10;;;;;;4912347;29;20487;-84
2022/12/17 19:51:27;;;;;;;32.60;19.20;;;-1.40;46.10;;;;;;4888649;29;20916;-85
2022/12/17 19:53:54;;;;;;;42.60;20.37;;;-1.40;46.20;;;;;;4888808;29;20464;-86
2022/12/17 19:56:25;;;;;;;29.17;16.90;;;-1.40;46.40;;;;;;4882100;29;20472;-86
2022/12/17 19:58:54;;;;;;;33.80;19.30;;;-1.30;46.30;;;;;;4888911;29;20459;-86
2022/12/17 20:01:23;;;;;;;41.80;20.97;;;-1.40;45.90;;;;;;4910801;29;20881;-86
2022/12/17 20:03:51;;;;;;;33.33;18.97;;;-1.40;46.00;;;;;;4918793;29;20497;-85
2022/12/17 20:06:20;;;;;;;29.50;15.73;;;-1.40;45.90;;;;;;4882503;29;20708;-86
2022/12/17 20:08:47;;;;;;;34.43;18.63;;;-1.40;45.70;;;;;;4892080;29;20471;-85
2022/12/17 20:11:33;;;;;;;33.23;17.10;;;-1.50;46.30;;;;;;4883131;29;20470;-86
2022/12/17 20:14:04;;;;;;;34.73;18.80;;;-1.50;46.00;;;;;;4889997;29;20902;-85
2022/12/17 20:16:33;;;;;;;26.60;16.30;;;-1.50;46.00;;;;;;4893680;29;20462;-85
2022/12/17 20:19:02;;;;;;;34.50;15.20;;;-1.60;45.50;;;;;;4894752;29;20584;-86
2022/12/17 20:21:29;;;;;;;34.20;13.97;;;-1.60;45.60;;;;;;4912663;29;20452;-86
2022/12/17 20:23:56;;;;;;;29.40;15.00;;;-1.60;45.70;;;;;;4881145;29;20479;-84
2022/12/17 20:26:24;;;;;;;26.00;12.37;;;-1.80;45.60;;;;;;4892760;29;20474;-84
2022/12/17 20:28:51;;;;;;;23.50;13.43;;;-1.90;45.70;;;;;;4901680;29;20474;-85
2022/12/17 20:31:19;;;;;;;26.77;14.30;;;-1.90;45.60;;;;;;4918349;29;20570;-85
2022/12/17 20:33:46;;;;;;;27.13;12.40;;;-1.80;45.70;;;;;;4931960;29;20475;-85
2022/12/17 20:36:15;;;;;;;18.80;12.53;;;-1.80;45.60;;;;;;4916398;29;20558;-84
2022/12/17 20:38:43;;;;;;;27.63;13.57;;;-1.70;45.50;;;;;;4900337;29;20458;-85
2022/12/17 20:41:12;;;;;;;26.10;15.50;;;-1.80;45.40;;;;;;4904003;29;20462;-87
2022/12/17 20:43:40;;;;;;;30.57;15.67;;;-1.80;45.60;;;;;;4909132;29;20975;-85
2022/12/17 20:46:08;;;;;;;33.50;15.77;;;-1.80;45.90;;;;;;4888164;29;20446;-87
2022/12/17 20:48:37;;;;;;;39.03;20.90;;;-1.80;45.70;;;;;;4916830;29;20601;-86
2022/12/17 20:51:11;;;;;;;38.17;20.70;;;-1.80;45.90;;;;;;4917878;29;20473;-84
2022/12/17 20:53:39;;;;;;;34.83;18.30;;;-1.80;46.30;;;;;;4924237;29;20474;-84
2022/12/17 20:56:08;;;;;;;31.00;18.00;;;-1.80;46.40;;;;;;4902527;29;20510;-84
2022/12/17 20:58:35;;;;;;;30.63;14.67;;;-1.80;46.40;;;;;;4916104;29;20459;-85
2022/12/17 21:01:04;;;;;;;21.13;12.67;;;-1.80;46.10;;;;;;4894743;29;20455;-84
2022/12/17 21:03:31;;;;;;;35.17;15.03;;;-1.90;46.30;;;;;;4915106;29;20954;-84
2022/12/17 21:06:06;;;;;;;24.33;10.90;;;-2.00;46.00;;;;;;4918909;29;20456;-85
2022/12/17 21:08:34;;;;;;;31.30;13.50;;;-2.00;46.10;;;;;;4867922;29;20485;-84
2022/12/17 21:11:01;;;;;;;22.83;14.10;;;-2.20;46.00;;;;;;4909105;29;20467;-84
2022/12/17 21:13:28;;;;;;;23.50;14.87;;;-2.20;46.10;;;;;;4918088;29;20968;-85
2022/12/17 21:15:56;;;;;;;21.87;13.67;;;-2.20;45.80;;;;;;4903868;29;20546;-85
2022/12/17 21:18:23;;;;;;;27.17;12.30;;;-2.10;45.90;;;;;;4918642;29;20453;-84
2022/12/17 21:20:58;;;;;;;24.33;14.40;;;-2.10;45.60;;;;;;4884965;29;20482;-86
2022/12/17 21:23:27;;;;;;;25.63;13.43;;;-2.00;45.30;;;;;;4899507;29;21011;-85
2022/12/17 21:25:59;;;;;;;33.57;15.07;;;-2.00;45.30;;;;;;4900225;29;20839;-85
2022/12/17 21:28:26;;;;;;;25.77;15.03;;;-2.00;45.20;;;;;;4888657;29;20885;-85
2022/12/17 21:30:53;;;;;;;20.00;14.43;;;-2.00;45.00;;;;;;4883405;29;20479;-85
2022/12/17 21:33:20;;;;;;;24.13;13.43;;;-2.10;44.60;;;;;;4932663;28;20984;-86
2022/12/17 21:35:47;;;;;;;30.17;13.47;;;-2.20;44.80;;;;;;4871825;29;20918;-83
2022/12/17 21:38:15;;;;;;;32.13;15.97;;;-2.30;44.80;;;;;;4901906;29;20461;-84
2022/12/17 21:40:43;;;;;;;36.07;17.40;;;-2.30;45.10;;;;;;4894918;29;20464;-86
2022/12/17 21:43:10;;;;;;;17.57;12.10;;;-2.20;45.40;;;;;;4881747;29;21040;-86
2022/12/17 21:45:39;;;;;;;27.27;16.50;;;-2.50;46.40;;;;;;4900880;29;20820;-85
2022/12/17 21:48:08;;;;;;;23.10;13.13;;;-2.50;46.90;;;;;;4913411;29;20447;-85
2022/12/17 21:50:39;;;;;;;31.40;19.10;;;-2.40;46.30;;;;;;4887318;29;20475;-86
2022/12/17 21:53:06;;;;;;;31.83;17.80;;;-2.30;45.60;;;;;;4875771;29;20826;-84
2022/12/17 21:55:33;;;;;;;33.93;17.50;;;-2.20;45.60;;;;;;4911687;29;20997;-83
2022/12/17 21:58:01;;;;;;;57.80;17.93;;;-2.30;45.70;;;;;;4891906;29;20462;-86
2022/12/17 22:00:28;;;;;;;27.10;15.93;;;-2.20;45.90;;;;;;4931791;28;20997;-84
2022/12/17 22:02:55;;;;;;;22.97;13.43;;;-2.20;45.40;;;;;;4905769;29;20511;-83
2022/12/17 22:05:23;;;;;;;22.60;13.17;;;-2.30;44.90;;;;;;4911982;29;20452;-85
2022/12/17 22:07:49;;;;;;;24.73;13.97;;;-2.50;45.00;;;;;;4871397;29;21110;-85
2022/12/17 22:10:17;;;;;;;28.87;15.20;;;-2.40;45.00;;;;;;4892041;29;20701;-85
2022/12/17 22:15:29;;;;;;;24.53;14.23;;;-2.50;44.40;;;;;;4901001;29;20535;-85
2022/12/17 22:17:56;;;;;;;27.57;16.63;;;-2.40;44.40;;;;;;4905539;29;20501;-85
2022/12/17 22:20:24;;;;;;;26.87;13.17;;;-2.50;44.30;;;;;;4911296;29;20455;-86
2022/12/17 22:22:50;;;;;;;43.37;16.07;;;-2.50;44.60;;;;;;4924936;28;20462;-84
2022/12/17 22:25:18;;;;;;;28.27;17.13;;;-2.50;45.00;;;;;;4887686;29;20488;-84
2022/12/17 22:27:45;;;;;;;30.50;18.30;;;-2.50;45.30;;;;;;4880387;29;20964;-85
2022/12/17 22:33:05;;;;;;;27.93;18.97;;;-2.70;44.90;;;;;;4904996;29;20447;-85
2022/12/17 22:35:35;;;;;;;31.23;18.40;;;-2.70;44.90;;;;;;4890257;29;21012;-83
2022/12/17 22:38:03;;;;;;;30.03;17.03;;;-2.70;45.00;;;;;;4913663;29;20463;-84
2022/12/17 22:40:30;;;;;;;31.37;18.30;;;-2.70;45.00;;;;;;4913255;29;20455;-83
2022/12/17 22:45:42;;;;;;;24.13;17.30;;;-2.60;44.60;;;;;;4926901;28;20506;-83
2022/12/17 22:48:11;;;;;;;36.33;18.40;;;-2.60;44.30;;;;;;4912591;29;20454;-84
2022/12/17 22:50:39;;;;;;;28.10;14.80;;;-2.60;44.90;;;;;;4918581;29;20475;-85
2022/12/17 22:53:06;;;;;;;35.63;17.27;;;-2.60;44.30;;;;;;4913015;29;20459;-84
2022/12/17 22:55:33;;;;;;;24.57;15.57;;;-2.70;44.20;;;;;;4914488;29;20454;-83
2022/12/17 22:58:01;;;;;;;29.63;16.77;;;-2.80;44.40;;;;;;4896174;29;20467;-84
2022/12/17 23:00:31;;;;;;;39.37;13.03;;;-2.80;44.60;;;;;;4912637;29;20833;-84
2022/12/17 23:02:59;;;;;;;17.30;14.77;;;-3.50;46.70;;;;;;4927226;28;20463;-85
2022/12/17 23:05:28;;;;;;;37.50;18.60;;;-3.70;47.90;;;;;;4929491;28;20448;-84
2022/12/17 23:07:56;;;;;;;47.70;23.33;;;-3.50;47.40;;;;;;4883855;29;20458;-85
2022/12/17 23:10:23;;;;;;;32.97;18.27;;;-3.40;46.90;;;;;;4882898;29;20487;-83
2022/12/17 23:12:50;;;;;;;35.67;21.80;;;-3.30;46.60;;;;;;4879733;29;20456;-85
2022/12/17 23:15:18;;;;;;;48.27;13.03;;;-3.40;46.50;;;;;;4894925;29;20474;-85
2022/12/17 23:17:45;;;;;;;27.77;18.40;;;-3.70;47.20;;;;;;4887963;29;20454;-84
2022/12/17 23:20:13;;;;;;;33.77;19.00;;;-3.80;47.60;;;;;;4915084;29;20443;-86
2022/12/17 23:22:41;;;;;;;47.73;25.63;;;-3.60;47.00;;;;;;4913229;29;20483;-86
2022/12/17 23:25:09;;;;;;;36.07;20.70;;;-3.60;46.90;;;;;;4889165;29;20476;-84
2022/12/17 23:27:37;;;;;;;32.10;17.80;;;-3.40;46.70;;;;;;4878561;29;20476;-85
2022/12/17 23:30:05;;;;;;;28.90;15.20;;;-3.20;46.30;;;;;;4896722;29;20835;-84
2022/12/17 23:32:32;;;;;;;20.17;14.80;;;-3.10;45.70;;;;;;4927154;28;20460;-84
2022/12/17 23:34:59;;;;;;;27.93;15.80;;;-3.00;45.20;;;;;;4895234;29;20468;-84
2022/12/17 23:37:26;;;;;;;33.83;13.30;;;-3.00;45.50;;;;;;4886151;29;20455;-86
2022/12/17 23:39:55;;;;;;;19.03;11.03;;;-3.10;45.90;;;;;;4896229;29;20958;-84
2022/12/17 23:42:22;;;;;;;28.40;14.40;;;-3.10;45.00;;;;;;4899362;29;20961;-85
2022/12/17 23:44:49;;;;;;;24.00;16.07;;;-3.10;44.70;;;;;;4902613;29;20485;-85
2022/12/17 23:47:16;;;;;;;26.87;12.80;;;-3.10;44.80;;;;;;4896949;29;20458;-85
2022/12/17 23:49:42;;;;;;;43.33;15.50;;;-3.00;44.70;;;;;;4886337;29;20870;-85
2022/12/17 23:52:09;;;;;;;22.80;11.70;;;-3.10;44.60;;;;;;4901718;29;20486;-83
2022/12/17 23:54:36;;;;;;;31.23;15.13;;;-3.10;44.40;;;;;;4910297;29;20480;-84
2022/12/17 23:57:05;;;;;;;19.40;12.80;;;-3.10;44.00;;;;;;4882757;29;20474;-84
2022/12/17 23:59:32;;;;;;;31.87;12.47;;;-3.10;44.20;;;;;;4880794;29;21031;-84
